Hartford, Connecticut
Traffic Map
Current Weather Conditions
Hartford, Connecticut
Clear
Clear
46°
Feels Like: 44°
Wind Chill: 44° Ceiling: Unl
Heat Index: 46° Visibility: 10mi
Dew Point: 32° Wind: 5mph
Humidity: 58% Direction: 210° (SSW)
Pressure: 30.24in Gusts: 0mph
Raw Report DataKHFD 191353Z 21004KT 10SM CLR 08/00 A3024 RMK AO2 SLP239 T00780000
Traffic Incident Summary
Active as of:
Severity:
Category:
InformationThere was an issue retrieving the traffic information for this location. Please try a different location or try again shortly.
Advertisements